Ephraim, Wisconsin
Current Conditions -  °F | °C
As of 7:55 AM on Monday 22 Dec 2014 (Local Time) from KMNM Reporting Station
Overcast Overcast  
Wind Chill: 28°   Ceiling: 2300
Heat Index: 36°   Visibility: 4mi
Dew Point: 32°   Wind: 12mph
Humidity: 87%   Direction: 180°S
Pressure: 29.93"   Gusts: NA
Location:  45.16°N, 87.17°W
Report Text: KMNM 221355Z AUTO 18010KT 4SM FEW014 BKN023 OVC029 02/00 A2993 RMK AO1
Loading
Personal Weather Stations






























Interactive Weather Map New forecast layout! Learn more

10-Day Weather Forecast

Advertisements
Track Severe Weather on mobile